Atlantic Sirius — VRGB5 — position and weather

sailwx.info

Track history (hours):
 
Tides and Currents Weather Stations Pressure Air Temp Water Temp Dewpoint Dewpoint Depression Visibility Wind Speed Wind Dir Waves Ship Positions

Atlantic Sirius

Last reported at 2017-Sep-24 10:08 UTC. Time now 2017-Oct-18 11:06 UTC.
Position N 26°10' W 015°36'.
Warning: this ship's position is 24 days out of date.

Length 184 m; draft 10.3 m.

Type: Tanker. MMSI: 477641800.

Date/timePositionNaut miles runAvg speedWind from/ knotsBaromVisibWave heightAir tempDewpointWater temp
2017-Sep-24 10:08N 26°10' W 015°36'10614.1
2017-Sep-24 02:35N 27°27' W 014°13'113.8
2017-Sep-24 02:29N 27°28' W 014°12'713.9
2017-Sep-24 02:00N 27°33' W 014°07'713.6
2017-Sep-24 01:30N 27°38' W 014°02'713.6
2017-Sep-24 01:00N 27°43' W 013°57'713.9
2017-Sep-24 00:30N 27°48' W 013°52'714.1
2017-Sep-23 23:59N 27°54' W 013°47'714.1
2017-Sep-23 23:30N 27°59' W 013°42'3513.8
2017-Sep-23 20:57N 28°28' W 013°19'613.8
2017-Sep-23 20:28N 28°34' W 013°15'  
2017-Sep-20 15:56N 36°07' W 005°22'2 3.7
2017-Sep-20 15:26N 36°06' W 005°22'3 7.1
2017-Sep-20 15:00N 36°06' W 005°18'1 0.6
2017-Sep-20 13:29N 36°07' W 005°18'0 0.1
2017-Sep-20 12:59N 36°07' W 005°18'0 0.0
2017-Sep-20 05:35N 36°07' W 005°18'0 0.3
2017-Sep-20 05:29N 36°07' W 005°18'0 0.1
2017-Sep-20 04:56N 36°07' W 005°18'0 0.1
2017-Sep-20 04:26N 36°07' W 005°18'0 0.2
2017-Sep-20 03:47N 36°07' W 005°18'0 0.1
2017-Sep-20 03:30N 36°07' W 005°18'3 5.6
2017-Sep-20 03:00N 36°05' W 005°21'2 3.8
2017-Sep-20 02:30N 36°07' W 005°22'0 0.8
2017-Sep-20 01:58N 36°07' W 005°21'0 0.0
2017-Sep-20 01:24N 36°07' W 005°21'0 0.0
2017-Sep-20 01:01N 36°07' W 005°21'0 0.1
2017-Sep-20 00:27N 36°07' W 005°21'0 0.1
2017-Sep-19 23:57N 36°07' W 005°21'0 0.1
2017-Sep-19 22:40N 36°07' W 005°21'0 0.3
2017-Sep-19 22:28N 36°07' W 005°21'0 0.2
2017-Sep-19 21:58N 36°07' W 005°21'0 0.1
2017-Sep-19 21:25N 36°07' W 005°21'0 0.0
2017-Sep-19 21:01N 36°07' W 005°21'0 0.0
2017-Sep-19 20:31N 36°07' W 005°21'0 0.3
2017-Sep-19 20:01N 36°07' W 005°21'1 1.8
2017-Sep-19 19:26N 36°06' W 005°21'1 2.3
2017-Sep-19 19:00N 36°05' W 005°20'2 3.5
2017-Sep-19 18:30N 36°07' W 005°19'1 1.4
2017-Sep-19 18:00N 36°07' W 005°18'0 0.3
2017-Sep-19 17:30N 36°07' W 005°18'0 0.1
2017-Sep-19 17:00N 36°07' W 005°18'0 0.0
2017-Sep-19 16:30N 36°07' W 005°18'0 0.0
2017-Sep-19 16:00N 36°07' W 005°18'0 0.0
2017-Sep-19 15:30N 36°07' W 005°18'0 0.0
2017-Sep-19 15:00N 36°07' W 005°18'0 0.0
2017-Sep-19 14:30N 36°07' W 005°18'0 0.0
2017-Sep-19 14:00N 36°07' W 005°18'0 0.0
2017-Sep-19 13:30N 36°07' W 005°18'0 0.0
2017-Sep-19 13:00N 36°07' W 005°18'0 0.1
2017-Sep-19 12:30N 36°07' W 005°18'0 0.0
2017-Sep-19 12:00N 36°07' W 005°18'0 0.0
2017-Sep-19 11:30N 36°07' W 005°18'0 0.1
2017-Sep-19 11:00N 36°07' W 005°18'0 0.0
2017-Sep-19 10:30N 36°07' W 005°18'0 0.3
2017-Sep-19 09:54N 36°07' W 005°18'0 0.2
2017-Sep-19 09:21N 36°07' W 005°18'0 0.1
2017-Sep-19 05:24N 36°07' W 005°18'0 0.0
2017-Sep-19 04:54N 36°07' W 005°18'0 0.4
2017-Sep-19 04:30N 36°07' W 005°18'2 3.7
2017-Sep-19 04:00N 36°06' W 005°16'3 5.7
2017-Sep-19 03:29N 36°03' W 005°16'613.7
2017-Sep-19 03:00N 35°59' W 005°23'714.5
2017-Sep-19 02:30N 35°57' W 005°31'1113.2
2017-Sep-19 01:38N 35°54' W 005°45'212.4
2017-Sep-19 01:30N 35°54' W 005°47'7312.4
2017-Sep-18 19:35N 36°05' W 007°17'11012.4
2017-Sep-18 10:40N 36°36' W 009°28'313.1
2017-Sep-18 10:27N 36°38' W 009°30'1412.7
2017-Sep-18 09:20N 36°51' W 009°39'613.1
2017-Sep-18 08:52N 36°57' W 009°41'1312.9
2017-Sep-18 07:50N 37°10' W 009°44'812.7
2017-Sep-18 07:11N 37°18' W 009°46'713.2
2017-Sep-18 06:41N 37°24' W 009°48'312.7
2017-Sep-18 06:27N 37°27' W 009°48'1313.0
2017-Sep-18 05:25N 37°40' W 009°52'512.4
2017-Sep-18 04:59N 37°46' W 009°54'612.1
2017-Sep-18 04:29N 37°51' W 009°56'612.2
2017-Sep-18 03:58N 37°58' W 009°58'612.3
2017-Sep-18 03:30N 38°03' W 009°59'612.4
2017-Sep-18 03:00N 38°09' W 010°01'612.7
2017-Sep-18 02:31N 38°15' W 010°03'713.2
2017-Sep-18 02:01N 38°22' W 010°05'713.0
2017-Sep-18 01:31N 38°28' W 010°07'713.0
2017-Sep-18 01:00N 38°34' W 010°09'613.0
2017-Sep-18 00:31N 38°41' W 010°10'713.0
2017-Sep-17 23:59N 38°48' W 010°11'613.4
2017-Sep-17 23:30N 38°54' W 010°11'713.2
2017-Sep-17 22:59N 39°01' W 010°11'613.4
2017-Sep-17 22:31N 39°07' W 010°11'713.2
2017-Sep-17 21:59N 39°14' W 010°12'613.0
2017-Sep-17 21:30N 39°20' W 010°12'612.8
2017-Sep-17 21:00N 39°27' W 010°11'612.7
2017-Sep-17 20:30N 39°33' W 010°11'712.7
2017-Sep-17 19:58N 39°40' W 010°12'612.8
2017-Sep-17 19:31N 39°46' W 010°11'  
2017-Sep-15 15:04N 49°45' W 003°54'112.7
2017-Sep-15 15:01N 49°45' W 003°53'612.5
2017-Sep-15 14:30N 49°49' W 003°45'611.9
2017-Sep-15 14:00N 49°51' W 003°36'612.0
2017-Sep-15 13:30N 49°53' W 003°27'612.1
2017-Sep-15 13:00N 49°54' W 003°18'612.3
2017-Sep-15 12:30N 49°56' W 003°09'612.5
2017-Sep-15 12:00N 49°58' W 002°60'612.9
2017-Sep-15 11:30N 49°60' W 002°50'3214.2
2017-Sep-15 09:13N 50°08' W 002°02'315.0
2017-Sep-15 09:00N 50°09' W 001°57'815.1
2017-Sep-15 08:31N 50°11' W 001°45'914.9
2017-Sep-15 07:53N 50°13' W 001°32'614.6
2017-Sep-15 07:30N 50°15' W 001°23'714.1
2017-Sep-15 07:00N 50°17' W 001°12'3312.6
2017-Sep-15 04:22N 50°26' W 000°22'411.8
2017-Sep-15 04:00N 50°27' W 000°16'611.8
2017-Sep-15 03:30N 50°28' W 000°07'611.7
2017-Sep-15 03:00N 50°30' E 000°02'611.9
2017-Sep-15 02:30N 50°32' E 000°11'612.1
2017-Sep-15 02:00N 50°33' E 000°20'612.6
2017-Sep-15 01:30N 50°35' E 000°30'713.0
2017-Sep-15 01:00N 50°37' E 000°39'713.6
2017-Sep-15 00:30N 50°41' E 000°48'713.9
2017-Sep-15 00:00N 50°45' E 000°57'1014.2
2017-Sep-14 23:17N 50°50' E 001°11'414.1
2017-Sep-14 22:59N 50°53' E 001°16'714.0
2017-Sep-14 22:30N 50°58' E 001°23'713.4
2017-Sep-14 22:00N 51°03' E 001°30'613.0
2017-Sep-14 21:30N 51°08' E 001°37'612.3
2017-Sep-14 21:00N 51°12' E 001°44'611.8
2017-Sep-14 20:30N 51°17' E 001°49'611.7
2017-Sep-14 20:00N 51°22' E 001°54'611.7
2017-Sep-14 19:30N 51°27' E 001°58'611.8
2017-Sep-14 19:00N 51°32' E 002°05'711.9
2017-Sep-14 18:23N 51°37' E 002°13'60 9.6
2017-Sep-14 12:07N 52°03' E 003°41'2 9.5
2017-Sep-14 11:57N 52°03' E 003°43'4 8.6
2017-Sep-14 11:30N 52°03' E 003°50'4 8.6
2017-Sep-14 11:00N 52°02' E 003°56'2 3.7
2017-Sep-14 10:30N 52°01' E 003°59'  
Track history (hours):
 
Tides and Currents Weather Stations Pressure Air Temp Water Temp Dewpoint Dewpoint Depression Visibility Wind Speed Wind Dir Waves Ship Positions

Atlantic Sirius

Last reported at 2017-Sep-24 10:08 UTC. Time now 2017-Oct-18 11:06 UTC.
Position N 26°10' W 015°36'.
Warning: this ship's position is 24 days out of date.

Length 184 m; draft 10.3 m.

Type: Tanker. MMSI: 477641800.

Date/timePositionNaut miles runAvg speedWind from/ knotsBaromVisibWave heightAir tempDewpointWater temp
2017-Sep-24 10:08N 26°10' W 015°36'10614.1
2017-Sep-24 02:35N 27°27' W 014°13'113.8
2017-Sep-24 02:29N 27°28' W 014°12'713.9
2017-Sep-24 02:00N 27°33' W 014°07'713.6
2017-Sep-24 01:30N 27°38' W 014°02'713.6
2017-Sep-24 01:00N 27°43' W 013°57'713.9
2017-Sep-24 00:30N 27°48' W 013°52'714.1
2017-Sep-23 23:59N 27°54' W 013°47'714.1
2017-Sep-23 23:30N 27°59' W 013°42'3513.8
2017-Sep-23 20:57N 28°28' W 013°19'613.8
2017-Sep-23 20:28N 28°34' W 013°15'  
2017-Sep-20 15:56N 36°07' W 005°22'2 3.7
2017-Sep-20 15:26N 36°06' W 005°22'3 7.1
2017-Sep-20 15:00N 36°06' W 005°18'1 0.6
2017-Sep-20 13:29N 36°07' W 005°18'0 0.1
2017-Sep-20 12:59N 36°07' W 005°18'0 0.0
2017-Sep-20 05:35N 36°07' W 005°18'0 0.3
2017-Sep-20 05:29N 36°07' W 005°18'0 0.1
2017-Sep-20 04:56N 36°07' W 005°18'0 0.1
2017-Sep-20 04:26N 36°07' W 005°18'0 0.2
2017-Sep-20 03:47N 36°07' W 005°18'0 0.1
2017-Sep-20 03:30N 36°07' W 005°18'3 5.6
2017-Sep-20 03:00N 36°05' W 005°21'2 3.8
2017-Sep-20 02:30N 36°07' W 005°22'0 0.8
2017-Sep-20 01:58N 36°07' W 005°21'0 0.0
2017-Sep-20 01:24N 36°07' W 005°21'0 0.0
2017-Sep-20 01:01N 36°07' W 005°21'0 0.1
2017-Sep-20 00:27N 36°07' W 005°21'0 0.1
2017-Sep-19 23:57N 36°07' W 005°21'0 0.1
2017-Sep-19 22:40N 36°07' W 005°21'0 0.3
2017-Sep-19 22:28N 36°07' W 005°21'0 0.2
2017-Sep-19 21:58N 36°07' W 005°21'0 0.1
2017-Sep-19 21:25N 36°07' W 005°21'0 0.0
2017-Sep-19 21:01N 36°07' W 005°21'0 0.0
2017-Sep-19 20:31N 36°07' W 005°21'0 0.3
2017-Sep-19 20:01N 36°07' W 005°21'1 1.8
2017-Sep-19 19:26N 36°06' W 005°21'1 2.3
2017-Sep-19 19:00N 36°05' W 005°20'2 3.5
2017-Sep-19 18:30N 36°07' W 005°19'1 1.4
2017-Sep-19 18:00N 36°07' W 005°18'0 0.3
2017-Sep-19 17:30N 36°07' W 005°18'0 0.1
2017-Sep-19 17:00N 36°07' W 005°18'0 0.0
2017-Sep-19 16:30N 36°07' W 005°18'0 0.0
2017-Sep-19 16:00N 36°07' W 005°18'0 0.0
2017-Sep-19 15:30N 36°07' W 005°18'0 0.0
2017-Sep-19 15:00N 36°07' W 005°18'0 0.0
2017-Sep-19 14:30N 36°07' W 005°18'0 0.0
2017-Sep-19 14:00N 36°07' W 005°18'0 0.0
2017-Sep-19 13:30N 36°07' W 005°18'0 0.0
2017-Sep-19 13:00N 36°07' W 005°18'0 0.1
2017-Sep-19 12:30N 36°07' W 005°18'0 0.0
2017-Sep-19 12:00N 36°07' W 005°18'0 0.0
2017-Sep-19 11:30N 36°07' W 005°18'0 0.1
2017-Sep-19 11:00N 36°07' W 005°18'0 0.0
2017-Sep-19 10:30N 36°07' W 005°18'0 0.3
2017-Sep-19 09:54N 36°07' W 005°18'0 0.2
2017-Sep-19 09:21N 36°07' W 005°18'0 0.1
2017-Sep-19 05:24N 36°07' W 005°18'0 0.0
2017-Sep-19 04:54N 36°07' W 005°18'0 0.4
2017-Sep-19 04:30N 36°07' W 005°18'2 3.7
2017-Sep-19 04:00N 36°06' W 005°16'3 5.7
2017-Sep-19 03:29N 36°03' W 005°16'613.7
2017-Sep-19 03:00N 35°59' W 005°23'714.5
2017-Sep-19 02:30N 35°57' W 005°31'1113.2
2017-Sep-19 01:38N 35°54' W 005°45'212.4
2017-Sep-19 01:30N 35°54' W 005°47'7312.4
2017-Sep-18 19:35N 36°05' W 007°17'11012.4
2017-Sep-18 10:40N 36°36' W 009°28'313.1
2017-Sep-18 10:27N 36°38' W 009°30'1412.7
2017-Sep-18 09:20N 36°51' W 009°39'613.1
2017-Sep-18 08:52N 36°57' W 009°41'1312.9
2017-Sep-18 07:50N 37°10' W 009°44'812.7
2017-Sep-18 07:11N 37°18' W 009°46'713.2
2017-Sep-18 06:41N 37°24' W 009°48'312.7
2017-Sep-18 06:27N 37°27' W 009°48'1313.0
2017-Sep-18 05:25N 37°40' W 009°52'512.4
2017-Sep-18 04:59N 37°46' W 009°54'612.1
2017-Sep-18 04:29N 37°51' W 009°56'612.2
2017-Sep-18 03:58N 37°58' W 009°58'612.3
2017-Sep-18 03:30N 38°03' W 009°59'612.4
2017-Sep-18 03:00N 38°09' W 010°01'612.7
2017-Sep-18 02:31N 38°15' W 010°03'713.2
2017-Sep-18 02:01N 38°22' W 010°05'713.0
2017-Sep-18 01:31N 38°28' W 010°07'713.0
2017-Sep-18 01:00N 38°34' W 010°09'613.0
2017-Sep-18 00:31N 38°41' W 010°10'713.0
2017-Sep-17 23:59N 38°48' W 010°11'613.4
2017-Sep-17 23:30N 38°54' W 010°11'713.2
2017-Sep-17 22:59N 39°01' W 010°11'613.4
2017-Sep-17 22:31N 39°07' W 010°11'713.2
2017-Sep-17 21:59N 39°14' W 010°12'613.0
2017-Sep-17 21:30N 39°20' W 010°12'612.8
2017-Sep-17 21:00N 39°27' W 010°11'612.7
2017-Sep-17 20:30N 39°33' W 010°11'712.7
2017-Sep-17 19:58N 39°40' W 010°12'612.8
2017-Sep-17 19:31N 39°46' W 010°11'  
2017-Sep-15 15:04N 49°45' W 003°54'112.7
2017-Sep-15 15:01N 49°45' W 003°53'612.5
2017-Sep-15 14:30N 49°49' W 003°45'611.9
2017-Sep-15 14:00N 49°51' W 003°36'612.0
2017-Sep-15 13:30N 49°53' W 003°27'612.1
2017-Sep-15 13:00N 49°54' W 003°18'612.3
2017-Sep-15 12:30N 49°56' W 003°09'612.5
2017-Sep-15 12:00N 49°58' W 002°60'612.9
2017-Sep-15 11:30N 49°60' W 002°50'3214.2
2017-Sep-15 09:13N 50°08' W 002°02'315.0
2017-Sep-15 09:00N 50°09' W 001°57'815.1
2017-Sep-15 08:31N 50°11' W 001°45'914.9
2017-Sep-15 07:53N 50°13' W 001°32'614.6
2017-Sep-15 07:30N 50°15' W 001°23'714.1
2017-Sep-15 07:00N 50°17' W 001°12'3312.6
2017-Sep-15 04:22N 50°26' W 000°22'411.8
2017-Sep-15 04:00N 50°27' W 000°16'611.8
2017-Sep-15 03:30N 50°28' W 000°07'611.7
2017-Sep-15 03:00N 50°30' E 000°02'611.9
2017-Sep-15 02:30N 50°32' E 000°11'612.1
2017-Sep-15 02:00N 50°33' E 000°20'612.6
2017-Sep-15 01:30N 50°35' E 000°30'713.0
2017-Sep-15 01:00N 50°37' E 000°39'713.6
2017-Sep-15 00:30N 50°41' E 000°48'713.9
2017-Sep-15 00:00N 50°45' E 000°57'1014.2
2017-Sep-14 23:17N 50°50' E 001°11'414.1
2017-Sep-14 22:59N 50°53' E 001°16'714.0
2017-Sep-14 22:30N 50°58' E 001°23'713.4
2017-Sep-14 22:00N 51°03' E 001°30'613.0
2017-Sep-14 21:30N 51°08' E 001°37'612.3
2017-Sep-14 21:00N 51°12' E 001°44'611.8
2017-Sep-14 20:30N 51°17' E 001°49'611.7
2017-Sep-14 20:00N 51°22' E 001°54'611.7
2017-Sep-14 19:30N 51°27' E 001°58'611.8
2017-Sep-14 19:00N 51°32' E 002°05'711.9
2017-Sep-14 18:23N 51°37' E 002°13'60 9.6
2017-Sep-14 12:07N 52°03' E 003°41'2 9.5
2017-Sep-14 11:57N 52°03' E 003°43'4 8.6
2017-Sep-14 11:30N 52°03' E 003°50'4 8.6
2017-Sep-14 11:00N 52°02' E 003°56'2 3.7
2017-Sep-14 10:30N 52°01' E 003°59'  

Dump ship's entire track history